createdAt,value
2018-03-26T00:00:28.426Z,99986.02
2018-03-26T00:02:57.336Z,99985.13
2018-03-26T00:05:26.216Z,99995.64
2018-03-26T00:07:55.099Z,99989.79
2018-03-26T00:10:24.251Z,99987.33
2018-03-26T00:12:53.240Z,99984.91
2018-03-26T00:15:22.121Z,99991.80
2018-03-26T00:17:51.042Z,99986.36
2018-03-26T00:20:23.279Z,99984.59
2018-03-26T00:22:52.435Z,99985.80
2018-03-26T00:25:21.472Z,99987.67
2018-03-26T00:27:50.505Z,99990.78
2018-03-26T00:30:19.362Z,99991.23
2018-03-26T00:32:48.734Z,99989.63
2018-03-26T00:35:17.602Z,99990.39
2018-03-26T00:37:46.462Z,99995.31
2018-03-26T00:40:15.828Z,99990.91
2018-03-26T00:42:44.750Z,99991.68
2018-03-26T00:45:13.603Z,100000.48
2018-03-26T00:47:42.776Z,100001.73
2018-03-26T00:50:11.663Z,100003.20
2018-03-26T00:52:40.546Z,99999.96
2018-03-26T00:55:09.956Z,100001.60
2018-03-26T00:57:38.903Z,100004.72
2018-03-26T01:00:08.124Z,100005.09
2018-03-26T01:02:37.477Z,100002.00
2018-03-26T01:05:06.344Z,100004.62
2018-03-26T01:07:35.263Z,100002.76
2018-03-26T01:10:05.409Z,100002.48
2018-03-26T01:12:34.819Z,100000.42
2018-03-26T01:15:04.198Z,100001.64
2018-03-26T01:17:33.367Z,100005.91
2018-03-26T01:20:03.186Z,100003.84
2018-03-26T01:22:32.140Z,100004.62
2018-03-26T01:25:01.655Z,100006.34
2018-03-26T01:27:30.528Z,100009.72
2018-03-26T01:29:59.409Z,100014.90
2018-03-26T01:32:28.318Z,100005.15
2018-03-26T01:34:57.171Z,100008.34
2018-03-26T01:37:26.295Z,100016.22
2018-03-26T01:39:55.157Z,100009.52
2018-03-26T01:42:24.241Z,100017.66
2018-03-26T01:44:53.403Z,100018.97
2018-03-26T01:47:22.296Z,100012.47
2018-03-26T01:49:51.319Z,100024.78
2018-03-26T01:52:20.463Z,100019.04
2018-03-26T01:54:49.339Z,100033.84
2018-03-26T01:57:18.506Z,100039.56
2018-03-26T01:59:47.660Z,100045.89
2018-03-26T02:02:16.968Z,100046.48
2018-03-26T02:04:45.853Z,100046.62
2018-03-26T02:07:15.019Z,100046.71
2018-03-26T02:09:43.843Z,100051.51
2018-03-26T02:12:12.704Z,100056.33
2018-03-26T02:14:41.626Z,100052.66
2018-03-26T02:17:10.632Z,100054.85
2018-03-26T02:19:39.796Z,100056.30
2018-03-26T02:22:08.673Z,100058.30
2018-03-26T02:24:37.645Z,100057.84
2018-03-26T02:27:06.797Z,100054.30
2018-03-26T02:29:35.651Z,100057.05
2018-03-26T02:32:05.288Z,100059.64
2018-03-26T02:34:34.427Z,100057.91
2018-03-26T02:37:03.365Z,100054.98
2018-03-26T02:39:32.243Z,100059.67
2018-03-26T02:42:02.289Z,100059.77
2018-03-26T02:44:31.189Z,100057.97
2018-03-26T02:47:00.030Z,100058.09
2018-03-26T02:49:29.170Z,100066.69
2018-03-26T02:51:58.064Z,100068.73
2018-03-26T02:54:26.910Z,100073.52
2018-03-26T02:56:56.182Z,100072.67
2018-03-26T02:59:25.013Z,100071.29
2018-03-26T03:01:54.176Z,100075.78
2018-03-26T03:04:23.035Z,100076.97
2018-03-26T03:06:51.858Z,100080.67
2018-03-26T03:09:21.291Z,100079.52
2018-03-26T03:11:50.150Z,100087.17
2018-03-26T03:14:19.048Z,100083.23
2018-03-26T03:16:48.209Z,100083.23
2018-03-26T03:19:17.115Z,100088.48
2018-03-26T03:21:45.993Z,100090.19
2018-03-26T03:24:15.160Z,100090.45
2018-03-26T03:26:44.024Z,100095.69
2018-03-26T03:29:12.862Z,100103.34
2018-03-26T03:31:42.198Z,100097.96
2018-03-26T03:34:11.250Z,100101.53
2018-03-26T03:36:40.186Z,100111.28
2018-03-26T03:39:09.221Z,100108.41
2018-03-26T03:41:38.065Z,100109.70
2018-03-26T03:44:07.231Z,100112.45
2018-03-26T03:46:36.285Z,100114.45
2018-03-26T03:49:05.926Z,100118.36
2018-03-26T03:51:35.081Z,100117.84
2018-03-26T03:54:05.098Z,100119.80
2018-03-26T03:56:33.941Z,100128.98
2018-03-26T03:59:04.454Z,100131.58
2018-03-26T04:01:33.323Z,100133.81
2018-03-26T04:04:02.956Z,100132.77
2018-03-26T04:06:32.114Z,100138.63
2018-03-26T04:09:01.270Z,100132.01
2018-03-26T04:11:30.134Z,100129.88
2018-03-26T04:13:59.003Z,100130.19
2018-03-26T04:16:27.886Z,100135.59
2018-03-26T04:18:57.040Z,100138.64
2018-03-26T04:21:25.926Z,100138.28
2018-03-26T04:23:54.824Z,100139.59
2018-03-26T04:26:23.995Z,100139.23
2018-03-26T04:28:52.935Z,100143.66
2018-03-26T04:31:21.786Z,100148.84
2018-03-26T04:33:50.982Z,100150.24
2018-03-26T04:36:20.850Z,100152.90
2018-03-26T04:38:49.732Z,100158.24
2018-03-26T04:41:19.201Z,100156.16
2018-03-26T04:43:48.056Z,100156.11
2018-03-26T04:46:16.957Z,100170.05
2018-03-26T04:48:46.873Z,100170.05
2018-03-26T04:51:15.726Z,100172.40
2018-03-26T04:53:44.587Z,100179.69
2018-03-26T04:56:13.736Z,100176.77
2018-03-26T04:58:42.636Z,100182.23
2018-03-26T05:01:11.660Z,100175.09
2018-03-26T05:03:40.558Z,100177.41
2018-03-26T05:06:09.451Z,100180.88
2018-03-26T05:08:38.681Z,100185.70
2018-03-26T05:11:07.745Z,100183.53
2018-03-26T05:13:36.615Z,100191.26
2018-03-26T05:16:07.417Z,100188.63
2018-03-26T05:18:36.277Z,100195.47
2018-03-26T05:21:05.812Z,100188.91
2018-03-26T05:23:34.975Z,100189.64
2018-03-26T05:26:04.552Z,100188.39
2018-03-26T05:28:33.441Z,100187.99
2018-03-26T05:31:03.401Z,100188.55
2018-03-26T05:33:32.273Z,100191.08
2018-03-26T05:39:32.755Z,100194.95
2018-03-26T05:42:02.603Z,100194.22
2018-03-26T05:44:31.511Z,100198.06
2018-03-26T05:47:00.689Z,100204.59
2018-03-26T05:49:29.620Z,100205.47
2018-03-26T05:51:58.469Z,100209.09
2018-03-26T05:54:27.990Z,100209.22
2018-03-26T05:56:56.915Z,100211.94
2018-03-26T05:59:25.812Z,100210.68
2018-03-26T06:01:54.986Z,100218.09
2018-03-26T06:04:23.857Z,100218.27
2018-03-26T06:06:52.721Z,100224.34
2018-03-26T06:09:24.034Z,100229.65
2018-03-26T06:11:53.102Z,100225.66
2018-03-26T06:14:22.039Z,100228.55
2018-03-26T06:16:59.944Z,100227.25
2018-03-26T06:19:28.882Z,100239.84
2018-03-26T06:21:58.150Z,100238.17
2018-03-26T06:24:27.183Z,100236.25
2018-03-26T06:26:56.164Z,100233.80
2018-03-26T06:29:25.381Z,100239.94
2018-03-26T06:31:54.356Z,100236.45
2018-03-26T06:34:23.303Z,100246.47
2018-03-26T06:36:52.690Z,100253.94
2018-03-26T06:39:21.667Z,100256.41
2018-03-26T06:41:50.594Z,100259.03
2018-03-26T06:44:19.817Z,100269.27
2018-03-26T06:46:48.679Z,100273.41
2018-03-26T06:49:17.605Z,100274.58
2018-03-26T06:51:46.831Z,100275.49
2018-03-26T06:54:15.715Z,100278.94
2018-03-26T06:56:44.747Z,100288.89
2018-03-26T06:59:15.884Z,100283.10
2018-03-26T07:01:44.933Z,100286.18
2018-03-26T07:04:13.839Z,100289.59
2018-03-26T07:06:43.320Z,100290.86
2018-03-26T07:09:12.198Z,100298.20
2018-03-26T07:11:41.112Z,100296.80
2018-03-26T07:14:10.506Z,100299.49
2018-03-26T07:16:39.408Z,100303.25
2018-03-26T07:19:08.440Z,100302.13
2018-03-26T07:21:38.235Z,100309.86
2018-03-26T07:24:08.595Z,100316.97
2018-03-26T07:26:37.518Z,100316.45
2018-03-26T07:29:06.881Z,100317.47
2018-03-26T07:31:35.828Z,100319.14
2018-03-26T07:34:05.485Z,100320.56
2018-03-26T07:36:34.618Z,100315.53
2018-03-26T07:39:03.899Z,100320.17
2018-03-26T07:41:32.810Z,100313.83
2018-03-26T07:44:02.462Z,100318.60
2018-03-26T07:46:31.457Z,100315.39
2018-03-26T07:49:00.378Z,100322.39
2018-03-26T07:51:29.585Z,100314.85
2018-03-26T07:53:58.505Z,100317.56
2018-03-26T07:56:27.363Z,100323.77
2018-03-26T07:58:56.563Z,100323.48
2018-03-26T08:01:25.421Z,100328.62
2018-03-26T08:03:54.418Z,100325.95
2018-03-26T08:06:23.660Z,100329.04
2018-03-26T08:08:52.575Z,100336.67
2018-03-26T08:11:21.864Z,100333.46
2018-03-26T08:13:50.848Z,100341.05
2018-03-26T08:16:19.871Z,100339.02
2018-03-26T08:18:49.112Z,100346.51
2018-03-26T08:21:17.996Z,100342.65
2018-03-26T08:23:46.948Z,100341.64
2018-03-26T08:26:16.645Z,100345.91
2018-03-26T08:28:45.579Z,100354.10
2018-03-26T08:31:14.664Z,100349.08
2018-03-26T08:33:43.875Z,100357.52
2018-03-26T08:36:12.799Z,100353.31
2018-03-26T08:38:41.736Z,100365.14
2018-03-26T08:41:11.090Z,100368.25
2018-03-26T08:43:39.996Z,100373.78
2018-03-26T08:46:09.151Z,100377.11
2018-03-26T08:48:38.257Z,100383.22
2018-03-26T08:51:07.342Z,100381.88
2018-03-26T08:53:36.761Z,100383.23
2018-03-26T08:56:05.839Z,100386.50
2018-03-26T08:58:34.798Z,100388.15
2018-03-26T09:01:04.237Z,100384.97
2018-03-26T09:03:33.206Z,100390.25
2018-03-26T09:06:05.436Z,100395.84
2018-03-26T09:08:34.638Z,100388.80
2018-03-26T09:11:04.787Z,100399.25
2018-03-26T09:13:34.142Z,100400.53
2018-03-26T09:16:04.139Z,100401.23
2018-03-26T09:18:33.046Z,100406.28
2018-03-26T09:21:02.197Z,100406.25
2018-03-26T09:23:31.424Z,100408.81
2018-03-26T09:26:00.445Z,100411.44
2018-03-26T09:28:29.360Z,100410.53
2018-03-26T09:30:58.298Z,100413.22
2018-03-26T09:33:27.520Z,100411.44
2018-03-26T09:35:57.715Z,100411.75
2018-03-26T09:38:26.619Z,100413.49
2018-03-26T09:40:55.854Z,100413.16
2018-03-26T09:43:25.044Z,100416.00
2018-03-26T09:45:54.047Z,100416.91
2018-03-26T09:48:22.919Z,100417.98
2018-03-26T09:50:52.116Z,100425.38
2018-03-26T09:53:21.072Z,100428.62
2018-03-26T09:55:50.610Z,100427.64
2018-03-26T09:58:20.502Z,100428.13
2018-03-26T10:00:49.451Z,100429.50
2018-03-26T10:03:18.317Z,100427.21
2018-03-26T10:05:47.489Z,100430.45
2018-03-26T10:08:16.417Z,100446.86
2018-03-26T10:10:45.384Z,100448.61
2018-03-26T10:13:14.795Z,100445.55
2018-03-26T10:15:43.670Z,100444.41
2018-03-26T10:18:12.828Z,100455.35
2018-03-26T10:20:41.718Z,100447.89
2018-03-26T10:23:10.948Z,100455.05
2018-03-26T10:25:40.142Z,100453.58
2018-03-26T10:28:09.048Z,100457.65
2018-03-26T10:30:37.904Z,100457.50
2018-03-26T10:33:07.060Z,100461.38
2018-03-26T10:35:36.403Z,100451.36
2018-03-26T10:38:06.495Z,100452.48
2018-03-26T10:40:35.679Z,100456.77
2018-03-26T10:43:05.324Z,100457.07
2018-03-26T10:45:34.297Z,100470.88
2018-03-26T10:48:05.495Z,100462.27
2018-03-26T10:50:34.514Z,100471.41
2018-03-26T10:53:03.567Z,100469.97
2018-03-26T10:55:32.452Z,100470.70
2018-03-26T10:58:03.229Z,100477.95
2018-03-26T11:00:32.498Z,100479.17
2018-03-26T11:03:01.898Z,100474.98
2018-03-26T11:05:30.775Z,100474.71
2018-03-26T11:08:00.156Z,100481.92
2018-03-26T11:10:29.096Z,100480.45
2018-03-26T11:12:58.090Z,100478.41
2018-03-26T11:15:27.367Z,100473.83
2018-03-26T11:17:56.411Z,100481.37
2018-03-26T11:20:25.481Z,100475.20
2018-03-26T11:22:56.361Z,100481.89
2018-03-26T11:25:25.412Z,100468.77
2018-03-26T11:27:54.409Z,100472.63
2018-03-26T11:30:23.827Z,100476.78
2018-03-26T11:32:53.852Z,100476.44
2018-03-26T11:35:22.800Z,100472.38
2018-03-26T11:37:52.104Z,100476.31
2018-03-26T11:40:21.102Z,100477.30
2018-03-26T11:42:50.451Z,100472.13
2018-03-26T11:45:19.459Z,100477.37
2018-03-26T11:47:48.502Z,100478.43
2018-03-26T11:50:17.672Z,100477.45
2018-03-26T11:52:46.596Z,100480.19
2018-03-26T11:55:15.701Z,100477.21
2018-03-26T11:57:45.093Z,100486.01
2018-03-26T12:00:14.514Z,100490.25
2018-03-26T12:02:43.772Z,100484.96
2018-03-26T12:05:13.167Z,100490.66
2018-03-26T12:07:42.302Z,100497.30
2018-03-26T12:10:11.545Z,100497.09
2018-03-26T12:12:40.846Z,100494.37
2018-03-26T12:15:10.404Z,100498.86
2018-03-26T12:17:39.351Z,100494.23
2018-03-26T12:20:18.332Z,100494.89
2018-03-26T12:22:47.700Z,100494.99
2018-03-26T12:25:17.608Z,100494.77
2018-03-26T12:27:55.291Z,100493.09
2018-03-26T12:30:24.434Z,100492.73
2018-03-26T12:32:53.442Z,100492.47
2018-03-26T12:35:33.278Z,100489.84
2018-03-26T12:38:04.162Z,100489.56
2018-03-26T12:40:53.558Z,100497.55
2018-03-26T12:43:22.846Z,100493.63
2018-03-26T12:46:04.564Z,100492.45
2018-03-26T12:48:33.833Z,100499.86
2018-03-26T12:53:20.568Z,100492.62
2018-03-26T12:55:50.651Z,100498.50
2018-03-26T12:58:44.205Z,100490.74
2018-03-26T13:03:24.300Z,100497.53
2018-03-26T13:05:53.459Z,100485.23
2018-03-26T13:08:22.788Z,100489.52
2018-03-26T13:10:52.678Z,100490.73
2018-03-26T13:13:21.697Z,100488.97
2018-03-26T13:15:50.713Z,100484.62
2018-03-26T13:18:19.776Z,100487.52
2018-03-26T13:20:48.780Z,100486.05
2018-03-26T13:23:18.664Z,100483.67
2018-03-26T13:25:47.684Z,100482.27
2018-03-26T13:28:16.698Z,100483.23
2018-03-26T13:30:45.719Z,100478.55
2018-03-26T13:33:15.278Z,100469.42
2018-03-26T13:35:44.611Z,100459.33
2018-03-26T13:38:13.608Z,100458.91
2018-03-26T13:40:42.550Z,100448.03
2018-03-26T13:43:14.009Z,100446.81
2018-03-26T13:45:42.970Z,100446.66
2018-03-26T13:48:12.125Z,100446.03
2018-03-26T13:50:41.597Z,100449.69
2018-03-26T13:53:12.318Z,100451.30
2018-03-26T13:55:41.414Z,100456.48
2018-03-26T13:58:10.418Z,100446.91
2018-03-26T14:00:39.373Z,100445.98
2018-03-26T14:03:08.357Z,100450.86
2018-03-26T14:05:37.805Z,100450.62
2018-03-26T14:08:07.724Z,100446.72
2018-03-26T14:14:20.878Z,100444.45
2018-03-26T14:17:53.996Z,100435.30
2018-03-26T14:20:23.397Z,100440.27
2018-03-26T14:22:52.354Z,100438.18
2018-03-26T14:25:21.373Z,100435.23
2018-03-26T14:27:50.815Z,100437.16
2018-03-26T14:30:20.184Z,100437.58
2018-03-26T14:32:49.265Z,100433.55
2018-03-26T14:35:38.371Z,100433.55
2018-03-26T14:38:07.468Z,100436.05
2018-03-26T14:40:36.846Z,100430.28
2018-03-26T14:43:06.027Z,100426.66
2018-03-26T14:45:35.152Z,100422.73
2018-03-26T14:48:06.001Z,100424.44
2018-03-26T14:50:35.894Z,100422.12
2018-03-26T14:53:05.387Z,100420.88
2018-03-26T14:55:35.466Z,100427.44
2018-03-26T14:58:05.640Z,100422.74
2018-03-26T15:00:34.821Z,100428.67
2018-03-26T15:03:05.819Z,100426.08
2018-03-26T15:05:34.829Z,100423.52
2018-03-26T15:08:05.963Z,100428.07
2018-03-26T15:10:35.714Z,100420.69
2018-03-26T15:13:06.362Z,100422.90
2018-03-26T15:15:36.509Z,100421.91
2018-03-26T15:18:07.777Z,100423.55
2018-03-26T15:20:37.315Z,100431.40
2018-03-26T15:23:06.928Z,100433.86
2018-03-26T15:25:36.275Z,100435.28
2018-03-26T15:28:06.737Z,100444.58
2018-03-26T15:30:35.799Z,100448.07
2018-03-26T15:33:06.113Z,100447.81
2018-03-26T15:35:35.216Z,100447.36
2018-03-26T15:38:05.546Z,100446.36
2018-03-26T15:40:36.386Z,100445.44
2018-03-26T15:43:05.520Z,100444.67
2018-03-26T15:45:34.590Z,100446.31
2018-03-26T15:48:05.427Z,100453.78
2018-03-26T15:50:34.592Z,100454.43
2018-03-26T15:53:04.028Z,100462.39
2018-03-26T15:55:33.420Z,100456.74
2018-03-26T15:58:03.217Z,100452.89
2018-03-26T16:00:32.382Z,100463.99
2018-03-26T16:03:05.948Z,100460.84
2018-03-26T16:05:35.007Z,100460.66
2018-03-26T16:08:05.000Z,100456.26
2018-03-26T16:10:34.233Z,100463.03
2018-03-26T16:13:03.437Z,100467.40
2018-03-26T16:15:32.458Z,100469.89
2018-03-26T16:18:04.871Z,100467.95
2018-03-26T16:20:34.055Z,100466.61
2018-03-26T16:23:03.934Z,100477.66
2018-03-26T16:25:33.299Z,100468.13
2018-03-26T16:28:04.690Z,100472.15
2018-03-26T16:30:33.756Z,100476.39
2018-03-26T16:33:04.497Z,100479.49
2018-03-26T16:35:33.536Z,100482.70
2018-03-26T16:38:05.169Z,100484.21
2018-03-26T16:40:34.802Z,100487.98
2018-03-26T16:43:06.102Z,100488.70
2018-03-26T16:45:35.278Z,100496.00
2018-03-26T16:48:06.882Z,100497.44
2018-03-26T16:50:35.935Z,100502.83
2018-03-26T16:53:05.832Z,100504.66
2018-03-26T16:55:35.316Z,100497.30
2018-03-26T16:58:05.430Z,100506.33
2018-03-26T17:00:34.431Z,100500.40
2018-03-26T17:03:06.911Z,100507.76
2018-03-26T17:05:36.115Z,100510.53
2018-03-26T17:08:06.071Z,100512.47
2018-03-26T17:10:35.588Z,100513.96
2018-03-26T17:13:04.934Z,100516.32
2018-03-26T17:15:34.114Z,100521.83
2018-03-26T17:18:04.469Z,100525.98
2018-03-26T17:20:33.646Z,100525.66
2018-03-26T17:23:03.360Z,100524.05
2018-03-26T17:25:32.854Z,100524.09
2018-03-26T17:30:32.788Z,100525.28
2018-03-26T17:33:03.046Z,100533.55
2018-03-26T17:35:32.588Z,100538.67
2018-03-26T17:38:02.855Z,100540.44
2018-03-26T17:40:32.174Z,100546.92
2018-03-26T17:43:01.331Z,100544.36
2018-03-26T17:45:30.433Z,100554.77
2018-03-26T17:47:59.411Z,100557.27
2018-03-26T17:50:28.307Z,100561.31
2018-03-26T17:52:57.344Z,100565.96
2018-03-26T17:55:26.631Z,100573.14
2018-03-26T17:57:55.597Z,100575.76
2018-03-26T18:00:24.556Z,100577.95
2018-03-26T18:02:53.864Z,100577.32
2018-03-26T18:05:23.000Z,100572.98
2018-03-26T18:07:52.020Z,100578.25
2018-03-26T18:10:21.100Z,100581.34
2018-03-26T18:12:50.107Z,100577.51
2018-03-26T18:15:19.320Z,100575.30
2018-03-26T18:17:48.319Z,100577.38
2018-03-26T18:20:17.368Z,100578.42
2018-03-26T18:22:46.497Z,100578.66
2018-03-26T18:25:15.465Z,100589.27
2018-03-26T18:27:44.406Z,100588.92
2018-03-26T18:30:13.677Z,100588.03
2018-03-26T18:32:42.607Z,100588.47
2018-03-26T18:35:11.625Z,100587.27
2018-03-26T18:37:40.901Z,100583.69
2018-03-26T18:40:10.117Z,100587.28
2018-03-26T18:42:39.328Z,100588.78
2018-03-26T18:45:08.572Z,100587.09
2018-03-26T18:47:38.152Z,100577.87
2018-03-26T18:50:07.175Z,100586.59
2018-03-26T18:52:36.168Z,100587.14
2018-03-26T18:55:05.420Z,100596.23
2018-03-26T18:57:34.352Z,100594.03
2018-03-26T19:00:06.529Z,100600.52
2018-03-26T19:03:05.728Z,100594.75
2018-03-26T19:05:35.134Z,100603.63
2018-03-26T19:08:06.260Z,100610.91
2018-03-26T19:10:35.468Z,100604.77
2018-03-26T19:13:04.969Z,100603.91
2018-03-26T19:15:33.943Z,100600.95
2018-03-26T19:18:04.269Z,100596.83
2018-03-26T19:20:33.354Z,100605.31
2018-03-26T19:23:02.976Z,100608.28
2018-03-26T19:25:32.065Z,100608.64
2018-03-26T19:28:01.263Z,100606.95
2018-03-26T19:30:30.318Z,100609.09
2018-03-26T19:32:59.350Z,100613.10
2018-03-26T19:35:28.366Z,100610.35
2018-03-26T19:37:58.419Z,100609.52
2018-03-26T19:40:27.741Z,100617.39
2018-03-26T19:42:56.781Z,100612.03
2018-03-26T19:45:25.965Z,100619.98
2018-03-26T19:47:55.555Z,100615.78
2018-03-26T19:50:24.455Z,100615.94
2018-03-26T19:52:53.538Z,100618.56
2018-03-26T19:55:23.118Z,100616.08
2018-03-26T19:57:52.067Z,100620.91
2018-03-26T20:00:20.984Z,100617.03
2018-03-26T20:02:49.999Z,100621.15
2018-03-26T20:05:18.962Z,100622.19
2018-03-26T20:07:47.890Z,100623.30
2018-03-26T20:10:17.210Z,100629.22
2018-03-26T20:12:46.233Z,100623.33
2018-03-26T20:15:15.236Z,100624.31
2018-03-26T20:17:44.199Z,100627.66
2018-03-26T20:20:13.245Z,100625.17
2018-03-26T20:22:42.547Z,100626.17
2018-03-26T20:25:12.248Z,100634.68
2018-03-26T20:27:41.304Z,100629.20
2018-03-26T20:30:10.732Z,100636.42
2018-03-26T20:32:39.742Z,100633.05
2018-03-26T20:35:08.974Z,100631.91
2018-03-26T20:37:38.319Z,100631.02
2018-03-26T20:40:07.706Z,100626.63
2018-03-26T20:42:37.085Z,100630.74
2018-03-26T20:45:06.150Z,100632.11
2018-03-26T20:47:35.189Z,100630.42
2018-03-26T20:50:05.148Z,100623.45
2018-03-26T20:52:34.192Z,100632.08
2018-03-26T20:55:04.471Z,100628.66
2018-03-26T20:57:34.772Z,100629.59
2018-03-26T21:00:05.176Z,100632.30
2018-03-26T21:02:34.237Z,100632.95
2018-03-26T21:05:03.876Z,100635.66
2018-03-26T21:07:32.837Z,100633.95
2018-03-26T21:10:02.008Z,100633.84
2018-03-26T21:12:32.779Z,100630.84
2018-03-26T21:15:02.039Z,100631.72
2018-03-26T21:17:31.146Z,100637.83
2018-03-26T21:20:00.583Z,100634.72
2018-03-26T21:22:29.544Z,100641.72
2018-03-26T21:24:58.643Z,100630.52
2018-03-26T21:27:27.649Z,100632.08
2018-03-26T21:29:56.678Z,100634.27
2018-03-26T21:32:26.075Z,100631.53
2018-03-26T21:34:55.254Z,100640.77
2018-03-26T21:37:24.385Z,100633.11
2018-03-26T21:39:54.985Z,100634.23
2018-03-26T21:42:24.024Z,100633.00
2018-03-26T21:44:52.981Z,100636.59
2018-03-26T21:47:22.267Z,100639.88
2018-03-26T21:49:51.293Z,100645.27
2018-03-26T21:52:20.660Z,100642.71
2018-03-26T21:54:49.966Z,100645.97
2018-03-26T21:57:18.975Z,100645.65
2018-03-26T21:59:47.848Z,100647.01
2018-03-26T22:02:17.105Z,100651.12
2018-03-26T22:04:46.150Z,100650.26
2018-03-26T22:07:15.119Z,100651.95
2018-03-26T22:09:44.128Z,100653.94
2018-03-26T22:12:13.207Z,100650.94
2018-03-26T22:14:43.462Z,100652.80
2018-03-26T22:17:13.003Z,100656.26
2018-03-26T22:19:42.035Z,100651.52
2018-03-26T22:22:11.416Z,100656.24
2018-03-26T22:24:40.494Z,100653.37
2018-03-26T22:27:09.476Z,100653.98
2018-03-26T22:29:38.695Z,100656.62
2018-03-26T22:32:07.723Z,100651.19
2018-03-26T22:34:37.688Z,100648.38
2018-03-26T22:37:07.126Z,100645.85
2018-03-26T22:39:36.047Z,100651.19
2018-03-26T22:42:06.236Z,100649.07
2018-03-26T22:44:36.451Z,100646.92
2018-03-26T22:47:06.388Z,100643.05
2018-03-26T22:49:35.372Z,100644.02
2018-03-26T22:52:05.451Z,100641.87
2018-03-26T22:54:34.462Z,100653.30
2018-03-26T22:57:06.773Z,100651.63
2018-03-26T22:59:35.788Z,100655.47
2018-03-26T23:02:05.627Z,100660.38
2018-03-26T23:04:34.900Z,100663.50
2018-03-26T23:07:04.188Z,100663.22
2018-03-26T23:09:33.530Z,100661.48
2018-03-26T23:12:03.543Z,100659.41
2018-03-26T23:14:32.563Z,100664.34
2018-03-26T23:17:01.758Z,100656.88
2018-03-26T23:19:31.072Z,100659.52
2018-03-26T23:21:59.996Z,100665.50
2018-03-26T23:24:28.993Z,100669.25
2018-03-26T23:26:58.289Z,100663.74
2018-03-26T23:29:27.267Z,100661.30
2018-03-26T23:31:56.276Z,100664.55
2018-03-26T23:34:25.292Z,100668.61
2018-03-26T23:36:54.195Z,100664.80
2018-03-26T23:39:23.879Z,100665.27
2018-03-26T23:41:52.787Z,100669.28
2018-03-26T23:44:21.861Z,100673.21
2018-03-26T23:46:51.096Z,100673.21
2018-03-26T23:49:20.116Z,100670.19
2018-03-26T23:51:49.052Z,100666.75
2018-03-26T23:54:18.351Z,100665.09
2018-03-26T23:56:47.451Z,100667.22
2018-03-26T23:59:16.418Z,100666.43
